Ashland, Missouri
Current Conditions -  °F | °C
As of 12:19 PM on Saturday 20 Dec 2014 (Local Time) from KCOU Reporting Station
Overcast Overcast  
Wind Chill: 37°   Ceiling: 1300
Heat Index: 40°   Visibility: 10mi
Dew Point: 37°   Wind: 5mph
Humidity: 89%   Direction: 180°S
Pressure: 30.2"   Gusts: NA
Location:  38.77°N, 92.26°W
Report Text: KCOU 201819Z 18004KT 10SM BKN013 OVC019 04/03 A3020 RMK AO2 T00440028
Loading
Personal Weather Stations






























Interactive Weather Map New forecast layout! Learn more

10-Day Weather Forecast

Advertisements
Track Severe Weather on mobile